Time;durP1;ratioP1;P1;durP2;ratioP2;P2;SDS_P1;SDS_P2;PMS_P1;PMS_P2;Temp;Humidity;BMP_temperature;BMP_pressure;BME280_temperature;BME280_humidity;BME280_pressure;Samples;Min_cycle;Max_cycle;Signal;HPM_P1;HPM_P2
2024/01/08 00:04:52;;;;;;;1999.90;999.90;;;;;;;-1.25;91.78;102965.13;10299550;28;20054;-66
2024/01/08 00:09:55;;;;;;;1999.90;999.90;;;;;;;-1.63;90.05;102967.50;10297408;28;20069;-66
2024/01/08 00:14:57;;;;;;;1999.90;999.90;;;;;;;-1.47;90.85;102969.66;10298806;28;20055;-66
2024/01/08 00:19:59;;;;;;;1999.90;999.90;;;;;;;-1.70;90.31;102969.91;10298363;28;20047;-66
2024/01/08 00:25:02;;;;;;;1999.90;999.90;;;;;;;-1.76;89.76;102959.47;10298191;28;20562;-66
2024/01/08 00:30:05;;;;;;;1999.90;999.90;;;;;;;-1.80;88.18;102965.34;10298542;28;20109;-67
2024/01/08 00:35:08;;;;;;;1999.90;999.90;;;;;;;-1.67;88.03;102966.53;10297088;28;20050;-66
2024/01/08 00:40:11;;;;;;;1999.90;999.90;;;;;;;-1.65;89.03;102964.88;10297948;28;20050;-66
2024/01/08 00:45:14;;;;;;;1999.90;999.90;;;;;;;-1.95;88.56;102963.19;10297987;28;20057;-66
2024/01/08 00:50:17;;;;;;;1999.90;999.90;;;;;;;-2.09;88.15;102967.03;10297574;28;20055;-66
2024/01/08 00:55:19;;;;;;;1999.90;999.90;;;;;;;-2.03;88.24;102966.34;10296512;28;20098;-66
2024/01/08 01:00:22;;;;;;;1999.90;999.90;;;;;;;-1.98;89.53;102964.81;10295976;28;20486;-66
2024/01/08 01:05:24;;;;;;;1999.90;999.90;;;;;;;-2.26;89.88;102966.53;10296983;28;20405;-66
2024/01/08 01:10:26;;;;;;;1999.90;999.90;;;;;;;-1.85;90.56;102978.88;10296866;28;20087;-66
2024/01/08 01:15:29;;;;;;;1999.90;999.90;;;;;;;-2.15;92.02;102988.28;10296655;28;20414;-66
2024/01/08 01:20:31;;;;;;;1999.90;999.90;;;;;;;-2.28;91.30;102992.16;10296194;28;20043;-66
2024/01/08 01:25:34;;;;;;;1999.90;999.90;;;;;;;-2.25;90.12;102986.25;10296109;28;20476;-67
2024/01/08 01:30:37;;;;;;;1999.90;999.90;;;;;;;-2.32;91.20;102994.56;10296489;28;20105;-66
2024/01/08 01:35:39;;;;;;;1999.90;999.90;;;;;;;-2.44;92.35;103001.06;10295822;28;20055;-66
2024/01/08 01:40:41;;;;;;;1999.90;999.90;;;;;;;-2.54;92.79;103006.75;10294537;28;20126;-66
2024/01/08 01:45:44;;;;;;;1999.90;999.90;;;;;;;-2.33;93.51;103003.09;10294225;28;20118;-66
2024/01/08 01:50:47;;;;;;;1999.90;999.90;;;;;;;-2.45;94.03;103003.59;10294060;28;20046;-66
2024/01/08 01:55:49;;;;;;;1999.90;999.90;;;;;;;-2.49;92.43;103002.63;10295263;28;20125;-66
2024/01/08 02:00:52;;;;;;;1999.90;999.90;;;;;;;-2.54;92.39;103008.41;10293844;28;20050;-66
2024/01/08 02:05:54;;;;;;;1999.90;999.90;;;;;;;-2.80;92.64;103006.72;10294762;28;20106;-66
2024/01/08 02:10:57;;;;;;;1999.90;999.90;;;;;;;-2.47;94.21;103002.66;10293439;28;20058;-66
2024/01/08 02:16:00;;;;;;;1999.90;999.90;;;;;;;-2.65;94.51;103005.50;10293229;28;20479;-66
2024/01/08 02:21:02;;;;;;;1999.90;999.90;;;;;;;-2.78;95.38;102999.09;10294555;28;20075;-66
2024/01/08 02:26:05;;;;;;;1999.90;999.90;;;;;;;-2.71;94.89;103005.28;10292804;28;20490;-66
2024/01/08 02:31:08;;;;;;;1999.90;999.90;;;;;;;-2.52;94.25;102999.97;10292600;28;20127;-67
2024/01/08 02:36:10;;;;;;;1999.90;999.90;;;;;;;-2.75;92.62;103006.91;10293982;28;20401;-67
2024/01/08 02:41:13;;;;;;;1999.90;999.90;;;;;;;-2.58;93.10;103004.88;10293761;28;20078;-66
2024/01/08 02:46:15;;;;;;;1999.90;999.90;;;;;;;-2.39;93.87;103005.47;10293625;28;20129;-67
2024/01/08 02:51:18;;;;;;;1999.90;999.90;;;;;;;-2.47;94.50;103010.34;10293897;28;20074;-67
2024/01/08 02:56:21;;;;;;;1999.90;999.90;;;;;;;-2.33;93.61;103014.22;10292532;28;20059;-67
2024/01/08 03:01:23;;;;;;;1999.90;999.90;;;;;;;-2.46;93.66;103009.53;10293329;28;20051;-67
2024/01/08 03:06:26;;;;;;;1999.90;999.90;;;;;;;-2.27;92.30;103016.09;10276175;28;20484;-66
2024/01/08 03:11:29;;;;;;;1999.90;999.90;;;;;;;-2.08;92.46;103017.56;10293182;28;20051;-66
2024/01/08 03:16:31;;;;;;;1999.90;999.90;;;;;;;-2.16;92.63;103021.59;10293055;28;20047;-66
2024/01/08 03:21:34;;;;;;;1999.90;999.90;;;;;;;-1.99;92.22;103014.41;10293148;28;20050;-66
2024/01/08 03:26:37;;;;;;;1999.90;999.90;;;;;;;-2.15;91.67;103010.47;10292682;28;20082;-66
2024/01/08 03:31:42;;;;;;;1999.90;999.90;;;;;;;-2.08;92.93;103015.88;10292851;28;20047;-66
2024/01/08 03:36:48;;;;;;;1999.90;999.90;;;;;;;-2.17;90.81;103018.16;10292810;28;20057;-66
2024/01/08 03:41:51;;;;;;;1999.90;999.90;;;;;;;-2.15;91.63;103010.47;10296306;28;20058;-66
2024/01/08 03:46:54;;;;;;;1999.90;999.90;;;;;;;-2.03;91.53;103018.59;10299196;28;20082;-66
2024/01/08 03:51:56;;;;;;;1999.90;999.90;;;;;;;-1.82;91.43;103015.78;10299822;28;20093;-67
2024/01/08 03:56:59;;;;;;;1999.90;999.90;;;;;;;-1.92;90.63;103016.31;10299794;28;20051;-67
2024/01/08 04:02:02;;;;;;;1999.90;999.90;;;;;;;-2.12;93.37;103020.84;10298306;28;20061;-66
2024/01/08 04:07:04;;;;;;;1999.90;999.90;;;;;;;-2.05;92.97;103025.38;10299388;28;20053;-67
2024/01/08 04:12:07;;;;;;;1999.90;999.90;;;;;;;-1.81;94.40;103022.66;10299032;28;20062;-67
2024/01/08 04:17:09;;;;;;;1999.90;999.90;;;;;;;-1.98;95.20;103016.16;10297720;28;20130;-67
2024/01/08 04:22:12;;;;;;;1999.90;999.90;;;;;;;-2.06;95.32;103029.63;10297636;28;20054;-67
2024/01/08 04:27:14;;;;;;;1999.90;999.90;;;;;;;-2.13;96.47;103016.56;10297304;28;20051;-67
2024/01/08 04:32:16;;;;;;;1999.90;999.90;;;;;;;-1.92;96.48;103024.88;10297249;28;20058;-67
2024/01/08 04:37:19;;;;;;;1999.90;999.90;;;;;;;-1.85;97.04;103025.94;10298188;28;20047;-67
2024/01/08 04:42:21;;;;;;;1999.90;999.90;;;;;;;-1.97;97.69;103018.75;10297906;28;20504;-67
2024/01/08 04:47:24;;;;;;;1999.90;999.90;;;;;;;-2.13;97.67;103014.00;10297181;28;20129;-67
2024/01/08 04:52:26;;;;;;;1999.90;999.90;;;;;;;-2.14;98.09;103007.97;10297247;28;20498;-67
2024/01/08 04:57:30;;;;;;;1999.90;999.90;;;;;;;-1.87;99.35;103020.78;10297510;28;20055;-67
2024/01/08 05:02:32;;;;;;;1999.90;999.90;;;;;;;-2.02;98.73;103019.44;10297113;28;20478;-67
2024/01/08 05:07:35;;;;;;;1999.90;999.90;;;;;;;-1.89;100.00;103012.16;10279942;28;20113;-67
2024/01/08 05:12:37;;;;;;;1999.90;999.90;;;;;;;-1.71;98.97;103013.53;10295710;28;20096;-67
2024/01/08 05:17:39;;;;;;;1999.90;999.90;;;;;;;-1.99;97.38;103012.69;10296488;28;20470;-67
2024/01/08 05:22:42;;;;;;;1999.90;999.90;;;;;;;-1.75;99.21;103007.44;10296486;28;20059;-67
2024/01/08 05:27:44;;;;;;;1999.90;999.90;;;;;;;-1.80;99.89;103019.28;10295565;28;20134;-67
2024/01/08 05:32:50;;;;;;;1999.90;999.90;;;;;;;-1.64;100.00;103014.59;10295012;28;20062;-67
2024/01/08 05:37:52;;;;;;;1999.90;999.90;;;;;;;-1.33;100.00;103013.72;10312112;23;20489;-67
2024/01/08 05:42:55;;;;;;;1999.90;999.90;;;;;;;-1.49;100.00;103012.44;10334931;28;20051;-67
2024/01/08 05:47:57;;;;;;;1999.90;999.90;;;;;;;-1.47;100.00;103008.22;10335618;28;20485;-67
2024/01/08 05:53:00;;;;;;;1999.90;999.90;;;;;;;-1.61;100.00;103004.41;10334256;28;20109;-67
2024/01/08 05:58:03;;;;;;;1999.90;999.90;;;;;;;-1.54;100.00;103004.59;10335720;28;20050;-67
2024/01/08 06:03:05;;;;;;;1999.90;999.90;;;;;;;-1.77;100.00;102998.78;10334969;28;20058;-67
2024/01/08 06:08:08;;;;;;;1999.90;999.90;;;;;;;-1.64;100.00;103004.31;10335147;28;20054;-67
2024/01/08 06:13:11;;;;;;;1999.90;999.90;;;;;;;-1.52;100.00;103004.66;10334183;28;20050;-67
2024/01/08 06:18:14;;;;;;;1999.90;999.90;;;;;;;-1.52;100.00;103005.50;10334915;28;20046;-67
2024/01/08 06:23:16;;;;;;;1999.90;999.90;;;;;;;-1.23;100.00;103007.16;10334540;28;20050;-67
2024/01/08 06:28:19;;;;;;;1999.90;999.90;;;;;;;-1.40;100.00;103010.13;10333032;28;20051;-67
2024/01/08 06:33:21;;;;;;;1999.90;999.90;;;;;;;-1.48;100.00;103011.59;10334342;28;20061;-67
2024/01/08 06:38:23;;;;;;;1999.90;999.90;;;;;;;-1.61;100.00;103012.97;10333942;28;20055;-67
2024/01/08 06:43:26;;;;;;;1999.90;999.90;;;;;;;-1.39;100.00;103011.88;10334246;28;20046;-67
2024/01/08 06:48:29;;;;;;;1999.90;999.90;;;;;;;-1.29;99.66;103014.69;10333865;28;20081;-67
2024/01/08 06:53:31;;;;;;;1999.90;999.90;;;;;;;-1.32;100.00;103021.47;10333682;28;20082;-67
2024/01/08 06:58:34;;;;;;;1999.90;999.90;;;;;;;-1.38;100.00;103026.47;10334341;28;20046;-67
2024/01/08 07:03:36;;;;;;;1999.90;999.90;;;;;;;-1.30;100.00;103024.09;10333605;28;20062;-67
2024/01/08 07:08:38;;;;;;;1999.90;999.90;;;;;;;-1.42;100.00;103018.63;10333268;28;20560;-67
2024/01/08 07:13:41;;;;;;;1999.90;999.90;;;;;;;-1.49;100.00;103030.44;10332247;28;20050;-67
2024/01/08 07:18:44;;;;;;;1999.90;999.90;;;;;;;-1.43;100.00;103034.88;10339897;28;20089;-67
2024/01/08 07:23:48;;;;;;;1999.90;999.90;;;;;;;-1.33;99.80;103039.44;10341337;28;20054;-67
2024/01/08 07:28:51;;;;;;;1999.90;999.90;;;;;;;-1.43;100.00;103038.31;10340447;28;20053;-67
2024/01/08 07:33:53;;;;;;;1999.90;999.90;;;;;;;-1.37;99.95;103037.63;10340840;28;20058;-67
2024/01/08 07:38:55;;;;;;;1999.90;999.90;;;;;;;-1.50;100.00;103037.28;10340536;28;20152;-67
2024/01/08 07:44:00;;;;;;;1999.90;999.90;;;;;;;-1.27;99.67;103046.47;10341185;28;20050;-67
2024/01/08 07:49:04;;;;;;;1999.90;999.90;;;;;;;-1.33;99.42;103053.19;10339099;28;20057;-67
2024/01/08 07:54:07;;;;;;;1999.90;999.90;;;;;;;-1.31;98.91;103050.66;10340158;28;20053;-67
2024/01/08 07:59:09;;;;;;;1999.90;999.90;;;;;;;-1.39;99.60;103050.41;10340069;28;20049;-67
2024/01/08 08:04:11;;;;;;;1999.90;999.90;;;;;;;-1.23;98.37;103045.69;10339838;28;20132;-67
2024/01/08 08:09:14;;;;;;;1999.90;999.90;;;;;;;-1.31;97.48;103056.66;10339564;28;20046;-67
2024/01/08 08:14:17;;;;;;;1999.90;999.90;;;;;;;-1.25;97.74;103050.81;10339181;28;20474;-67
2024/01/08 08:19:19;;;;;;;1999.90;999.90;;;;;;;-1.08;98.74;103064.13;10339393;28;20054;-67
2024/01/08 08:24:25;;;;;;;1999.90;999.90;;;;;;;-1.04;100.00;103062.50;10339135;28;20117;-67
2024/01/08 08:29:27;;;;;;;1999.90;999.90;;;;;;;-1.21;100.00;103064.59;10337513;28;20086;-67
2024/01/08 08:34:32;;;;;;;1999.90;999.90;;;;;;;-1.24;100.00;103067.13;10338978;28;20406;-67
2024/01/08 08:39:38;;;;;;;1999.90;999.90;;;;;;;-1.11;100.00;103076.88;10338655;28;20077;-67
2024/01/08 08:44:41;;;;;;;1999.90;999.90;;;;;;;-1.25;99.17;103084.22;10338424;28;20058;-67
2024/01/08 08:49:43;;;;;;;1999.90;999.90;;;;;;;-1.07;98.37;103088.16;10337833;28;20043;-67
2024/01/08 08:54:46;;;;;;;1999.90;999.90;;;;;;;-1.05;99.07;103087.34;10338464;28;20125;-67
2024/01/08 08:59:48;;;;;;;1999.90;999.90;;;;;;;-1.06;98.58;103092.44;10337776;28;20050;-67
2024/01/08 09:04:50;;;;;;;1999.90;999.90;;;;;;;-1.13;98.09;103092.28;10337579;28;20057;-67
2024/01/08 09:09:53;;;;;;;1999.90;999.90;;;;;;;-1.05;100.00;103107.91;10337299;28;20054;-67
2024/01/08 09:14:56;;;;;;;1999.90;999.90;;;;;;;-1.03;100.00;103097.69;10336935;28;20061;-67
2024/01/08 09:19:58;;;;;;;1999.90;999.90;;;;;;;-0.83;100.00;103113.66;10336965;28;20053;-67
2024/01/08 09:25:00;;;;;;;1999.90;999.90;;;;;;;-1.22;100.00;103104.88;10336515;28;20054;-67
2024/01/08 09:30:04;;;;;;;1999.90;999.90;;;;;;;-1.15;100.00;103106.78;10336357;28;20078;-67
2024/01/08 09:35:07;;;;;;;1999.90;999.90;;;;;;;-1.24;100.00;103119.38;10318950;28;20481;-67
2024/01/08 09:40:10;;;;;;;1999.90;999.90;;;;;;;-1.06;100.00;103118.16;10335947;28;20050;-67
2024/01/08 09:45:13;;;;;;;1999.90;999.90;;;;;;;1.81;96.60;103117.63;10336026;28;20078;-67
2024/01/08 09:50:15;;;;;;;1999.90;999.90;;;;;;;-0.23;91.28;103120.34;10334688;28;20189;-67
2024/01/08 09:55:18;;;;;;;1999.90;999.90;;;;;;;-0.36;95.59;103121.75;10318231;28;20050;-67
2024/01/08 10:00:21;;;;;;;1999.90;999.90;;;;;;;-0.85;96.25;103121.31;10335334;28;20050;-67
2024/01/08 10:05:28;;;;;;;1999.90;999.90;;;;;;;-0.94;97.14;103123.66;10335099;28;20058;-67
2024/01/08 10:10:31;;;;;;;1999.90;999.90;;;;;;;-0.64;96.77;103120.16;10334203;28;20117;-67
2024/01/08 10:15:33;;;;;;;1999.90;999.90;;;;;;;-0.16;96.44;103118.81;10334722;28;20085;-67
2024/01/08 10:20:35;;;;;;;1999.90;999.90;;;;;;;-0.53;95.30;103108.44;10334803;28;20046;-67
2024/01/08 10:25:39;;;;;;;1999.90;999.90;;;;;;;-0.58;96.20;103108.31;10333487;28;20062;-67
2024/01/08 10:30:41;;;;;;;1999.90;999.90;;;;;;;-0.44;96.67;103113.84;10334269;28;20504;-67
2024/01/08 10:35:44;;;;;;;1999.90;999.90;;;;;;;-0.30;97.17;103115.88;10334156;28;20513;-67
2024/01/08 10:40:47;;;;;;;1999.90;999.90;;;;;;;0.05;95.56;103109.03;10334105;28;20133;-67
2024/01/08 10:45:54;;;;;;;1999.90;999.90;;;;;;;-0.20;94.90;103092.13;10333061;28;20058;-67
2024/01/08 10:50:57;;;;;;;1999.90;999.90;;;;;;;-0.02;92.55;103094.25;10333041;28;20516;-66
2024/01/08 10:56:00;;;;;;;1999.90;999.90;;;;;;;0.18;89.25;103092.13;10332451;28;20441;-67
2024/01/08 11:01:03;;;;;;;1999.90;999.90;;;;;;;-0.06;88.94;103088.16;10332290;28;20046;-67
2024/01/08 11:06:06;;;;;;;1999.90;999.90;;;;;;;-0.03;86.63;103083.06;10332882;28;20062;-67
2024/01/08 11:11:11;;;;;;;1999.90;999.90;;;;;;;-0.35;87.28;103091.72;10332757;28;20054;-67
2024/01/08 11:16:20;;;;;;;1999.90;999.90;;;;;;;0.64;85.09;103089.66;10332470;28;20050;-67
2024/01/08 11:21:27;;;;;;;1999.90;999.90;;;;;;;1.45;79.37;103069.72;10332124;28;20473;-67
2024/01/08 11:26:29;;;;;;;1999.90;999.90;;;;;;;0.67;77.34;103074.25;10333154;28;20493;-67
2024/01/08 11:31:50;;;;;;;1999.90;999.90;;;;;;;0.09;78.59;103084.19;10332964;28;20050;-67
2024/01/08 11:37:01;;;;;;;1999.90;999.90;;;;;;;-0.09;76.08;103064.03;10332960;28;20397;-67
2024/01/08 11:42:05;;;;;;;1999.90;999.90;;;;;;;0.04;76.00;103060.91;10332920;28;20582;-67
2024/01/08 11:47:07;;;;;;;1999.90;999.90;;;;;;;0.45;72.84;103060.06;10332839;28;20078;-67
2024/01/08 11:52:13;;;;;;;1999.90;999.90;;;;;;;0.48;70.69;103058.41;10332600;28;20046;-67
2024/01/08 11:57:17;;;;;;;1999.90;999.90;;;;;;;1.40;66.28;103067.03;10332061;28;20125;-67
2024/01/08 12:02:21;;;;;;;1999.90;999.90;;;;;;;1.79;62.20;103057.34;10333514;28;20051;-67
2024/01/08 12:07:25;;;;;;;1999.90;999.90;;;;;;;1.01;63.29;103059.44;10338644;28;20061;-67
2024/01/08 12:12:29;;;;;;;1999.90;999.90;;;;;;;0.38;63.43;103076.25;10338290;28;20054;-67
2024/01/08 12:17:31;;;;;;;1999.90;999.90;;;;;;;0.14;64.19;103057.69;10338274;28;20129;-67
2024/01/08 12:22:34;;;;;;;1999.90;999.90;;;;;;;-0.16;62.99;103050.16;10338328;28;20445;-67
2024/01/08 12:27:38;;;;;;;1999.90;999.90;;;;;;;0.18;61.61;103043.16;10339113;28;20055;-67
2024/01/08 12:32:40;;;;;;;1999.90;999.90;;;;;;;-0.07;62.43;103050.38;10321483;28;20058;-67
2024/01/08 12:37:43;;;;;;;1999.90;999.90;;;;;;;-0.53;62.50;103054.41;10338499;28;20050;-67
2024/01/08 12:42:48;;;;;;;1999.90;999.90;;;;;;;-0.51;61.67;103051.88;10337100;28;20109;-67
2024/01/08 12:47:50;;;;;;;1999.90;999.90;;;;;;;-0.40;61.76;103053.88;10337015;28;20053;-67
2024/01/08 12:52:53;;;;;;;1999.90;999.90;;;;;;;-0.16;61.32;103068.16;10337773;28;20100;-67
2024/01/08 12:57:57;;;;;;;1999.90;999.90;;;;;;;-0.24;61.40;103043.94;10337645;28;20081;-67
2024/01/08 13:03:00;;;;;;;1999.90;999.90;;;;;;;-0.68;62.43;103046.31;10336385;28;20061;-67
2024/01/08 13:08:03;;;;;;;1999.90;999.90;;;;;;;-0.78;62.23;103046.06;10336276;28;20051;-66
2024/01/08 13:13:05;;;;;;;1999.90;999.90;;;;;;;-0.39;62.86;103045.34;10336688;28;20042;-67
2024/01/08 13:18:09;;;;;;;1999.90;999.90;;;;;;;-0.63;60.84;103045.56;10320581;28;20129;-67
2024/01/08 13:23:12;;;;;;;1999.90;999.90;;;;;;;-0.68;62.28;103054.03;10337240;28;20054;-67
2024/01/08 13:28:14;;;;;;;1999.90;999.90;;;;;;;-0.80;63.95;103057.16;10335431;28;20486;-67
2024/01/08 13:33:17;;;;;;;1999.90;999.90;;;;;;;-0.96;62.60;103058.44;10336205;28;20489;-67
2024/01/08 13:38:19;;;;;;;1999.90;999.90;;;;;;;-0.93;62.37;103058.53;10336473;28;20050;-67
2024/01/08 13:43:24;;;;;;;1999.90;999.90;;;;;;;-1.18;62.14;103060.44;10335946;28;20046;-67
2024/01/08 13:48:26;;;;;;;1999.90;999.90;;;;;;;-0.63;60.74;103066.16;10335770;28;20573;-67
2024/01/08 13:53:29;;;;;;;1999.90;999.90;;;;;;;-0.77;62.32;103060.66;10335514;28;20125;-67
2024/01/08 13:58:34;;;;;;;1999.90;999.90;;;;;;;-0.65;61.50;103062.69;10335362;28;20047;-67
2024/01/08 14:03:37;;;;;;;1999.90;999.90;;;;;;;-0.70;61.84;103066.84;10335446;28;20149;-67
2024/01/08 14:08:40;;;;;;;1999.90;999.90;;;;;;;-0.68;62.70;103065.19;10333876;28;20130;-67
2024/01/08 14:13:42;;;;;;;1999.90;999.90;;;;;;;-0.68;64.00;103066.88;10334150;28;20481;-67
2024/01/08 14:18:45;;;;;;;1999.90;999.90;;;;;;;-0.67;65.38;103069.50;10333438;28;20410;-67
2024/01/08 14:23:48;;;;;;;1999.90;999.90;;;;;;;-0.79;64.59;103072.63;10334505;28;20394;-67
2024/01/08 14:28:50;;;;;;;1999.90;999.90;;;;;;;-1.02;66.88;103079.72;10333715;28;20183;-67
2024/01/08 14:33:52;;;;;;;1999.90;999.90;;;;;;;-1.15;66.60;103081.06;10334485;28;20050;-67
2024/01/08 14:38:55;;;;;;;1999.90;999.90;;;;;;;-1.29;66.25;103066.97;10332717;28;20383;-67
2024/01/08 14:43:58;;;;;;;1999.90;999.90;;;;;;;-1.33;66.26;103083.13;10334152;28;20061;-67
2024/01/08 14:49:00;;;;;;;1999.90;999.90;;;;;;;-1.31;64.93;103084.94;10332638;28;20050;-67
2024/01/08 14:54:03;;;;;;;1999.90;999.90;;;;;;;-1.35;65.14;103098.50;10333906;28;20061;-67
2024/01/08 14:59:05;;;;;;;1999.90;999.90;;;;;;;-1.26;64.76;103097.03;10333603;28;20417;-67
2024/01/08 15:04:08;;;;;;;1999.90;999.90;;;;;;;-1.51;66.04;103101.47;10333787;28;20100;-67
2024/01/08 15:09:10;;;;;;;1999.90;999.90;;;;;;;-1.52;67.15;103110.84;10332376;28;20054;-67
2024/01/08 15:14:13;;;;;;;1999.90;999.90;;;;;;;-1.70;66.38;103094.88;10333815;28;20058;-67
2024/01/08 15:19:22;;;;;;;1999.90;999.90;;;;;;;-1.71;65.70;103100.88;10333537;28;20146;-67
2024/01/08 15:24:24;;;;;;;1999.90;999.90;;;;;;;-1.78;65.77;103110.06;10333109;28;20054;-67
2024/01/08 15:29:27;;;;;;;1999.90;999.90;;;;;;;-1.77;66.44;103109.22;10332044;28;20149;-67
2024/01/08 15:34:29;;;;;;;1999.90;999.90;;;;;;;-1.90;64.90;103110.56;10331965;28;20050;-67
2024/01/08 15:39:32;;;;;;;1999.90;999.90;;;;;;;-1.81;66.35;103124.53;10338461;28;20053;-67
2024/01/08 15:44:34;;;;;;;1999.90;999.90;;;;;;;-1.90;66.20;103128.53;10340529;28;20050;-67
2024/01/08 15:49:37;;;;;;;1999.90;999.90;;;;;;;-1.86;67.80;103134.66;10339110;28;20086;-67
2024/01/08 15:54:39;;;;;;;1999.90;999.90;;;;;;;-2.08;67.18;103146.78;10340069;28;20046;-67
2024/01/08 15:59:42;;;;;;;1999.90;999.90;;;;;;;-2.16;67.45;103144.78;10340232;28;20078;-67
2024/01/08 16:04:45;;;;;;;1999.90;999.90;;;;;;;-1.91;68.73;103156.75;10339976;28;20149;-67
2024/01/08 16:09:47;;;;;;;1999.90;999.90;;;;;;;-2.13;68.22;103161.16;10339585;28;20053;-67
2024/01/08 16:14:50;;;;;;;1999.90;999.90;;;;;;;-2.27;69.03;103158.16;10339618;28;20064;-67
2024/01/08 16:19:53;;;;;;;1999.90;999.90;;;;;;;-2.13;68.70;103160.31;10339665;28;20504;-67
2024/01/08 16:24:57;;;;;;;1999.90;999.90;;;;;;;-2.29;70.37;103159.75;10339056;28;20050;-67
2024/01/08 16:29:59;;;;;;;1999.90;999.90;;;;;;;-2.21;70.88;103160.03;10339005;28;20141;-67
2024/01/08 16:35:04;;;;;;;1999.90;999.90;;;;;;;-2.26;70.73;103164.13;10338690;28;20069;-67
2024/01/08 16:40:07;;;;;;;1999.90;999.90;;;;;;;-2.38;72.57;103174.00;10338667;28;20089;-67
2024/01/08 16:45:10;;;;;;;1999.90;999.90;;;;;;;-2.29;71.61;103175.16;10338283;28;20064;-67
2024/01/08 16:50:14;;;;;;;1999.90;999.90;;;;;;;-2.27;72.41;103180.34;10336946;28;20042;-67
2024/01/08 16:55:17;;;;;;;1999.90;999.90;;;;;;;-2.48;73.23;103183.06;10337965;28;20057;-67
2024/01/08 17:00:20;;;;;;;1999.90;999.90;;;;;;;-2.47;72.46;103177.09;10337764;28;20551;-67
2024/01/08 17:05:22;;;;;;;1999.90;999.90;;;;;;;-2.37;73.92;103184.31;10337745;28;20104;-67
2024/01/08 17:10:25;;;;;;;1999.90;999.90;;;;;;;-2.38;73.01;103194.53;10337271;28;20046;-67
2024/01/08 17:15:27;;;;;;;1999.90;999.90;;;;;;;-2.28;75.29;103199.16;10337120;28;20581;-67
2024/01/08 17:20:30;;;;;;;1999.90;999.90;;;;;;;-2.12;73.85;103190.25;10337223;28;20089;-67
2024/01/08 17:25:32;;;;;;;1999.90;999.90;;;;;;;-1.91;72.35;103201.25;10336597;28;20489;-67
2024/01/08 17:30:34;;;;;;;1999.90;999.90;;;;;;;-1.98;72.63;103207.03;10336382;28;20052;-67
2024/01/08 17:35:37;;;;;;;1999.90;999.90;;;;;;;-2.06;71.87;103204.19;10336383;28;20094;-68
2024/01/08 17:40:40;;;;;;;1999.90;999.90;;;;;;;-2.00;71.83;103208.66;10336495;28;20101;-68
2024/01/08 17:45:42;;;;;;;1999.90;999.90;;;;;;;-1.96;72.81;103209.63;10335963;28;20057;-68
2024/01/08 17:50:45;;;;;;;1999.90;999.90;;;;;;;-2.03;72.65;103225.63;10335677;28;20570;-68
2024/01/08 17:55:47;;;;;;;1999.90;999.90;;;;;;;-1.98;72.25;103232.69;10349581;23;20409;-65
2024/01/08 18:00:50;;;;;;;1999.90;999.90;;;;;;;-2.07;73.05;103240.97;10334151;28;20093;-65
2024/01/08 18:05:52;;;;;;;1999.90;999.90;;;;;;;-2.32;72.33;103236.66;10334206;28;20050;-66
2024/01/08 18:10:55;;;;;;;1999.90;999.90;;;;;;;-2.42;73.21;103237.16;10335055;28;20050;-66
2024/01/08 18:15:57;;;;;;;1999.90;999.90;;;;;;;-2.47;72.72;103239.56;10333941;28;20050;-65
2024/01/08 18:21:00;;;;;;;1999.90;999.90;;;;;;;-2.26;73.62;103243.69;10335170;28;20125;-67
2024/01/08 18:26:02;;;;;;;1999.90;999.90;;;;;;;-2.34;72.35;103247.69;10334464;28;20097;-65
2024/01/08 18:31:05;;;;;;;1999.90;999.90;;;;;;;-2.19;72.92;103257.63;10334779;28;20141;-65
2024/01/08 18:36:08;;;;;;;1999.90;999.90;;;;;;;-2.32;73.05;103254.63;10333946;28;20120;-65
2024/01/08 18:41:10;;;;;;;1999.90;999.90;;;;;;;-2.46;73.41;103248.97;10333477;28;20129;-65
2024/01/08 18:46:12;;;;;;;1999.90;999.90;;;;;;;-2.44;72.03;103257.63;10317038;28;20093;-66
2024/01/08 18:51:15;;;;;;;1999.90;999.90;;;;;;;-2.29;73.46;103251.28;10333832;28;20486;-66
2024/01/08 18:56:17;;;;;;;1999.90;999.90;;;;;;;-2.39;72.89;103259.47;10332560;28;20065;-66
2024/01/08 19:01:20;;;;;;;1999.90;999.90;;;;;;;-2.46;73.42;103263.50;10332471;28;20125;-66
2024/01/08 19:06:25;;;;;;;1999.90;999.90;;;;;;;-2.39;71.97;103270.59;10333791;28;20129;-66
2024/01/08 19:11:28;;;;;;;1999.90;999.90;;;;;;;-2.41;72.58;103263.69;10334480;28;20478;-66
2024/01/08 19:16:30;;;;;;;1999.90;999.90;;;;;;;-2.56;72.03;103270.00;10341677;28;20046;-66
2024/01/08 19:21:33;;;;;;;1999.90;999.90;;;;;;;-2.51;73.10;103270.16;10324264;28;20432;-66
2024/01/08 19:26:35;;;;;;;1999.90;999.90;;;;;;;-2.47;72.51;103278.03;10341796;28;20077;-66
2024/01/08 19:31:45;;;;;;;1999.90;999.90;;;;;;;-2.53;73.07;103270.13;10341228;28;20082;-66
2024/01/08 19:36:48;;;;;;;1999.90;999.90;;;;;;;-2.66;73.49;103265.34;10339856;28;20054;-66
2024/01/08 19:41:51;;;;;;;1999.90;999.90;;;;;;;-2.69;72.96;103267.78;10340852;28;20056;-66
2024/01/08 19:46:57;;;;;;;1999.90;999.90;;;;;;;-2.76;73.05;103265.81;10340573;28;20090;-66
2024/01/08 19:52:00;;;;;;;1999.90;999.90;;;;;;;-2.84;73.86;103268.97;10339430;28;20046;-66
2024/01/08 19:57:04;;;;;;;1999.90;999.90;;;;;;;-2.77;72.82;103269.19;10322917;28;20054;-66
2024/01/08 20:02:06;;;;;;;1999.90;999.90;;;;;;;-2.83;72.10;103270.72;10339918;28;20505;-66
2024/01/08 20:07:09;;;;;;;1999.90;999.90;;;;;;;-2.76;72.45;103270.94;10339851;28;20077;-66
2024/01/08 20:12:11;;;;;;;1999.90;999.90;;;;;;;-2.76;72.53;103266.69;10339508;28;20057;-66
2024/01/08 20:17:14;;;;;;;1999.90;999.90;;;;;;;-2.88;71.68;103261.97;10339535;28;20061;-66
2024/01/08 20:22:16;;;;;;;1999.90;999.90;;;;;;;-2.80;70.88;103265.69;10338028;28;20061;-66
2024/01/08 20:27:18;;;;;;;1999.90;999.90;;;;;;;-2.84;71.20;103268.97;10339249;28;20083;-66
2024/01/08 20:32:21;;;;;;;1999.90;999.90;;;;;;;-2.99;72.18;103270.97;10338234;28;20078;-66
2024/01/08 20:37:25;;;;;;;1999.90;999.90;;;;;;;-2.86;70.66;103275.75;10338594;28;20054;-66
2024/01/08 20:42:27;;;;;;;1999.90;999.90;;;;;;;-3.04;70.23;103269.91;10339154;28;20049;-66
2024/01/08 20:47:30;;;;;;;1999.90;999.90;;;;;;;-2.87;71.99;103271.44;10338189;28;20374;-66
2024/01/08 20:52:34;;;;;;;1999.90;999.90;;;;;;;-3.15;71.66;103273.75;10338107;28;20089;-66
2024/01/08 20:57:36;;;;;;;1999.90;999.90;;;;;;;-3.11;70.90;103278.16;10338400;28;20133;-66
2024/01/08 21:02:39;;;;;;;1999.90;999.90;;;;;;;-3.08;71.79;103280.84;10337624;28;20401;-66
2024/01/08 21:07:45;;;;;;;1999.90;999.90;;;;;;;-3.05;70.93;103280.97;10336564;28;20055;-66
2024/01/08 21:12:48;;;;;;;1999.90;999.90;;;;;;;-3.08;71.82;103284.28;10336015;28;20050;-66
2024/01/08 21:17:51;;;;;;;1999.90;999.90;;;;;;;-3.04;70.75;103291.28;10336124;28;20057;-65
2024/01/08 21:22:53;;;;;;;1999.90;999.90;;;;;;;-3.19;70.73;103283.88;10336746;28;20050;-66
2024/01/08 21:27:56;;;;;;;1999.90;999.90;;;;;;;-3.25;70.91;103290.44;10336966;28;20064;-65
2024/01/08 21:32:58;;;;;;;1999.90;999.90;;;;;;;-3.31;72.34;103285.06;10335358;28;20053;-66
2024/01/08 21:38:01;;;;;;;1999.90;999.90;;;;;;;-3.37;71.59;103289.13;10334580;28;20113;-66
2024/01/08 21:43:04;;;;;;;1999.90;999.90;;;;;;;-3.24;72.32;103294.75;10336011;28;20047;-65
2024/01/08 21:48:08;;;;;;;1999.90;999.90;;;;;;;-3.21;71.62;103293.19;10335777;28;20512;-65
2024/01/08 21:53:11;;;;;;;1999.90;999.90;;;;;;;-3.27;72.47;103298.06;10335853;28;20073;-65
2024/01/08 21:58:13;;;;;;;1999.90;999.90;;;;;;;-3.40;71.84;103294.13;10335633;28;20054;-65